createdAt,value
2018-10-12T00:01:45.016Z,13.00
2018-10-12T00:02:44.541Z,12.50
2018-10-12T00:04:37.472Z,12.90
2018-10-12T00:05:37.415Z,12.60
2018-10-12T00:07:30.806Z,13.50
2018-10-12T00:08:30.785Z,12.40
2018-10-12T00:10:23.707Z,12.90
2018-10-12T00:11:23.665Z,12.70
2018-10-12T00:13:17.055Z,13.60
2018-10-12T00:14:17.023Z,12.80
2018-10-12T00:16:09.924Z,12.40
2018-10-12T00:17:09.898Z,13.10
2018-10-12T00:19:02.788Z,12.90
2018-10-12T00:20:02.768Z,13.10
2018-10-12T00:21:56.260Z,12.70
2018-10-12T00:22:56.238Z,12.90
2018-10-12T00:24:49.614Z,11.90
2018-10-12T00:25:49.616Z,13.00
2018-10-12T00:27:43.015Z,12.70
2018-10-12T00:28:42.961Z,12.20
2018-10-12T00:30:35.887Z,12.20
2018-10-12T00:31:35.866Z,12.10
2018-10-12T00:33:29.316Z,12.00
2018-10-12T00:34:29.239Z,11.90
2018-10-12T00:36:22.168Z,11.60
2018-10-12T00:37:22.105Z,12.50
2018-10-12T00:39:15.042Z,12.30
2018-10-12T00:40:14.987Z,12.00
2018-10-12T00:42:07.879Z,12.70
2018-10-12T00:43:07.852Z,13.10
2018-10-12T00:45:00.727Z,11.30
2018-10-12T00:46:00.709Z,11.80
2018-10-12T00:47:53.618Z,12.10
2018-10-12T00:48:53.593Z,12.00
2018-10-12T00:50:46.965Z,12.30
2018-10-12T00:51:46.949Z,11.80
2018-10-12T00:53:40.329Z,12.10
2018-10-12T00:54:40.309Z,11.60
2018-10-12T00:56:33.695Z,12.40
2018-10-12T00:57:33.678Z,11.30
2018-10-12T00:59:27.304Z,12.00
2018-10-12T01:00:27.274Z,11.80
2018-10-12T01:02:20.167Z,11.80
2018-10-12T01:03:20.146Z,11.50
2018-10-12T01:05:13.539Z,12.00
2018-10-12T01:06:13.510Z,11.70
2018-10-12T01:08:06.405Z,11.90
2018-10-12T01:09:06.375Z,11.70
2018-10-12T01:10:59.770Z,11.60
2018-10-12T01:11:59.771Z,11.40
2018-10-12T01:13:53.125Z,12.40
2018-10-12T01:14:53.110Z,11.40
2018-10-12T01:16:46.521Z,12.00
2018-10-12T01:17:46.466Z,11.60
2018-10-12T01:19:39.848Z,12.20
2018-10-12T01:20:39.837Z,12.50
2018-10-12T01:22:33.236Z,11.80
2018-10-12T01:23:33.214Z,12.10
2018-10-12T01:25:26.080Z,11.50
2018-10-12T01:26:26.070Z,11.80
2018-10-12T01:28:19.445Z,12.00
2018-10-12T01:29:19.420Z,12.20
2018-10-12T01:31:12.809Z,11.10
2018-10-12T01:32:12.782Z,11.70
2018-10-12T01:34:05.691Z,12.20
2018-10-12T01:35:05.660Z,13.10
2018-10-12T01:36:58.827Z,12.30
2018-10-12T01:37:58.797Z,12.90
2018-10-12T01:39:51.696Z,12.20
2018-10-12T01:40:51.674Z,12.40
2018-10-12T01:42:44.566Z,12.90
2018-10-12T01:43:44.535Z,11.80
2018-10-12T01:45:37.438Z,12.00
2018-10-12T01:46:37.411Z,12.10
2018-10-12T01:48:30.801Z,12.60
2018-10-12T01:49:30.771Z,13.50
2018-10-12T01:51:23.726Z,13.40
2018-10-12T01:52:23.637Z,12.60
2018-10-12T01:54:17.030Z,12.40
2018-10-12T01:55:16.997Z,12.50
2018-10-12T01:57:10.463Z,11.80
2018-10-12T01:58:10.362Z,12.00
2018-10-12T02:00:03.423Z,11.80
2018-10-12T02:01:03.348Z,12.20
2018-10-12T02:02:56.747Z,12.50
2018-10-12T02:03:56.690Z,12.30
2018-10-12T02:05:50.072Z,12.30
2018-10-12T02:06:50.068Z,12.70
2018-10-12T02:08:43.465Z,12.10
2018-10-12T02:09:43.435Z,12.20
2018-10-12T02:11:36.337Z,12.50
2018-10-12T02:12:36.304Z,13.00
2018-10-12T02:14:29.317Z,12.50
2018-10-12T02:15:29.171Z,11.70
2018-10-12T02:17:22.556Z,11.90
2018-10-12T02:18:22.527Z,12.70
2018-10-12T02:20:15.910Z,11.60
2018-10-12T02:21:15.898Z,11.50
2018-10-12T02:23:09.284Z,12.10
2018-10-12T02:24:09.260Z,12.40
2018-10-12T02:26:02.165Z,11.40
2018-10-12T02:27:02.124Z,11.80
2018-10-12T02:28:55.146Z,11.50
2018-10-12T02:29:55.127Z,11.10
2018-10-12T02:31:48.006Z,11.80
2018-10-12T02:32:47.976Z,11.50
2018-10-12T02:34:40.872Z,11.80
2018-10-12T02:35:40.847Z,11.70
2018-10-12T02:37:34.262Z,11.00
2018-10-12T02:38:34.212Z,11.20
2018-10-12T02:40:27.606Z,11.30
2018-10-12T02:41:27.573Z,11.20
2018-10-12T02:43:20.978Z,12.50
2018-10-12T02:44:20.950Z,11.80
2018-10-12T02:46:14.329Z,11.70
2018-10-12T02:47:14.324Z,11.30
2018-10-12T02:49:07.227Z,11.50
2018-10-12T02:50:07.198Z,11.30
2018-10-12T02:52:00.080Z,11.80
2018-10-12T02:53:00.054Z,11.80
2018-10-12T02:54:53.428Z,12.40
2018-10-12T02:55:53.407Z,12.90
2018-10-12T02:57:46.859Z,12.30
2018-10-12T02:58:46.802Z,11.70
2018-10-12T03:00:39.700Z,12.60
2018-10-12T03:01:39.656Z,11.90
2018-10-12T03:03:33.049Z,12.00
2018-10-12T03:04:33.009Z,12.20
2018-10-12T03:06:25.916Z,12.40
2018-10-12T03:07:25.894Z,12.10
2018-10-12T03:09:19.260Z,12.30
2018-10-12T03:10:19.246Z,12.20
2018-10-12T03:12:12.131Z,11.90
2018-10-12T03:13:12.101Z,12.40
2018-10-12T03:15:04.992Z,12.00
2018-10-12T03:16:04.984Z,11.20
2018-10-12T03:17:57.860Z,10.90
2018-10-12T03:18:57.834Z,11.40
2018-10-12T03:20:50.780Z,10.60
2018-10-12T03:21:50.716Z,10.10
2018-10-12T03:23:43.638Z,10.50
2018-10-12T03:24:43.578Z,10.60
2018-10-12T03:26:36.978Z,11.60
2018-10-12T03:27:36.948Z,10.90
2018-10-12T03:29:30.381Z,10.40
2018-10-12T03:30:30.349Z,10.30
2018-10-12T03:32:23.232Z,9.90
2018-10-12T03:33:23.212Z,9.60
2018-10-12T03:35:16.117Z,10.10
2018-10-12T03:36:16.079Z,10.40
2018-10-12T03:38:09.473Z,10.10
2018-10-12T03:39:09.435Z,11.00
2018-10-12T03:41:02.827Z,10.00
2018-10-12T03:42:02.812Z,9.80
2018-10-12T03:43:56.197Z,10.40
2018-10-12T03:44:56.187Z,10.20
2018-10-12T03:46:49.575Z,10.10
2018-10-12T03:47:49.530Z,10.70
2018-10-12T03:49:42.944Z,9.20
2018-10-12T03:50:42.908Z,10.40
2018-10-12T03:52:36.361Z,9.60
2018-10-12T03:53:35.774Z,9.30
2018-10-12T03:55:28.658Z,10.00
2018-10-12T03:56:28.635Z,9.90
2018-10-12T03:58:21.531Z,10.40
2018-10-12T03:59:21.503Z,10.10
2018-10-12T04:01:14.402Z,9.70
2018-10-12T04:02:14.383Z,10.00
2018-10-12T04:04:07.292Z,10.00
2018-10-12T04:05:07.240Z,9.60
2018-10-12T04:07:00.704Z,9.80
2018-10-12T04:08:00.607Z,9.70
2018-10-12T04:09:53.534Z,9.60
2018-10-12T04:10:53.477Z,9.90
2018-10-12T04:12:47.427Z,10.30
2018-10-12T04:13:47.399Z,10.10
2018-10-12T04:15:40.801Z,9.60
2018-10-12T04:16:40.766Z,10.20
2018-10-12T04:18:33.666Z,9.60
2018-10-12T04:19:33.659Z,10.00
2018-10-12T04:21:27.059Z,10.00
2018-10-12T04:22:26.996Z,9.70
2018-10-12T04:24:19.954Z,9.30
2018-10-12T04:25:20.005Z,9.70
2018-10-12T04:27:12.771Z,10.20
2018-10-12T04:28:12.756Z,9.30
2018-10-12T04:30:06.695Z,9.50
2018-10-12T04:31:06.681Z,9.90
2018-10-12T04:33:00.061Z,9.20
2018-10-12T04:34:00.034Z,9.50
2018-10-12T04:35:52.927Z,9.50
2018-10-12T04:36:52.917Z,8.80
2018-10-12T04:38:46.377Z,9.20
2018-10-12T04:39:46.286Z,9.20
2018-10-12T04:41:39.230Z,9.80
2018-10-12T04:42:39.158Z,9.50
2018-10-12T04:44:32.655Z,9.70
2018-10-12T04:45:32.496Z,9.00
2018-10-12T04:47:25.660Z,9.70
2018-10-12T04:48:25.423Z,9.50
2018-10-12T04:50:18.303Z,9.60
2018-10-12T04:51:18.264Z,9.20
2018-10-12T04:53:11.171Z,9.10
2018-10-12T04:54:11.117Z,9.90
2018-10-12T04:57:36.157Z,10.10
2018-10-12T04:58:36.132Z,9.70
2018-10-12T05:00:30.239Z,9.60
2018-10-12T05:01:29.476Z,9.10
2018-10-12T05:03:22.903Z,9.70
2018-10-12T05:04:22.845Z,9.40
2018-10-12T05:06:16.265Z,9.50
2018-10-12T05:07:16.214Z,9.80
2018-10-12T05:09:09.125Z,9.10
2018-10-12T05:10:09.094Z,9.60
2018-10-12T05:12:02.554Z,9.50
2018-10-12T05:13:02.462Z,9.00
2018-10-12T05:14:55.833Z,8.80
2018-10-12T05:15:55.825Z,9.20
2018-10-12T05:17:49.398Z,8.40
2018-10-12T05:18:49.196Z,8.40
2018-10-12T05:20:42.588Z,9.40
2018-10-12T05:21:42.603Z,9.30
2018-10-12T05:23:35.487Z,9.30
2018-10-12T05:24:35.438Z,9.20
2018-10-12T05:26:28.325Z,9.20
2018-10-12T05:27:28.314Z,8.50
2018-10-12T05:29:21.751Z,8.60
2018-10-12T05:30:21.727Z,8.60
2018-10-12T05:32:14.571Z,8.60
2018-10-12T05:33:14.546Z,8.40
2018-10-12T05:35:07.982Z,8.80
2018-10-12T05:36:07.947Z,7.80
2018-10-12T05:38:00.855Z,8.40
2018-10-12T05:39:00.787Z,8.50
2018-10-12T05:40:53.690Z,8.40
2018-10-12T05:41:53.782Z,9.00
2018-10-12T05:43:48.157Z,8.80
2018-10-12T05:44:48.022Z,8.60
2018-10-12T05:46:40.951Z,8.20
2018-10-12T05:47:40.883Z,8.30
2018-10-12T05:49:33.955Z,8.50
2018-10-12T05:50:33.760Z,8.00
2018-10-12T05:52:27.230Z,9.00
2018-10-12T05:53:26.637Z,9.20
2018-10-12T05:55:19.538Z,8.40
2018-10-12T05:56:19.508Z,8.90
2018-10-12T05:58:12.926Z,8.70
2018-10-12T05:59:12.879Z,8.10
2018-10-12T06:01:05.961Z,8.40
2018-10-12T06:02:05.752Z,8.60
2018-10-12T06:03:58.925Z,8.90
2018-10-12T06:04:58.621Z,8.30
2018-10-12T06:06:52.183Z,7.90
2018-10-12T06:07:51.979Z,8.20
2018-10-12T06:11:16.966Z,7.70
2018-10-12T06:12:16.929Z,7.90
2018-10-12T06:14:09.833Z,8.20
2018-10-12T06:15:09.807Z,7.90
2018-10-12T06:17:03.197Z,8.60
2018-10-12T06:18:03.157Z,8.10
2018-10-12T06:19:56.049Z,8.00
2018-10-12T06:20:56.037Z,7.10
2018-10-12T06:22:49.531Z,7.30
2018-10-12T06:23:49.388Z,6.90
2018-10-12T06:25:42.910Z,7.60
2018-10-12T06:26:42.799Z,7.30
2018-10-12T06:28:35.804Z,7.60
2018-10-12T06:29:35.631Z,7.70
2018-10-12T06:31:28.512Z,7.50
2018-10-12T06:32:28.509Z,7.40
2018-10-12T06:34:21.909Z,7.80
2018-10-12T06:35:21.869Z,7.90
2018-10-12T06:37:15.324Z,7.20
2018-10-12T06:38:14.731Z,7.00
2018-10-12T06:40:07.656Z,7.10
2018-10-12T06:41:07.678Z,6.40
2018-10-12T06:43:00.520Z,7.20
2018-10-12T06:44:00.501Z,6.90
2018-10-12T06:45:53.579Z,7.20
2018-10-12T06:46:53.541Z,7.00
2018-10-12T06:48:46.995Z,6.90
2018-10-12T06:49:46.928Z,7.30
2018-10-12T06:51:40.295Z,6.90
2018-10-12T06:52:40.291Z,6.90
2018-10-12T06:54:33.692Z,6.60
2018-10-12T06:55:33.660Z,6.40
2018-10-12T06:57:27.127Z,7.20
2018-10-12T06:58:27.102Z,7.50
2018-10-12T07:00:20.483Z,6.70
2018-10-12T07:01:20.449Z,7.50
2018-10-12T07:03:13.958Z,7.70
2018-10-12T07:04:13.820Z,7.10
2018-10-12T07:06:07.209Z,7.70
2018-10-12T07:07:07.182Z,7.50
2018-10-12T07:09:00.106Z,7.20
2018-10-12T07:10:00.064Z,6.80
2018-10-12T07:11:53.441Z,6.80
2018-10-12T07:12:53.428Z,7.60
2018-10-12T07:14:46.803Z,7.20
2018-10-12T07:15:46.780Z,6.70
2018-10-12T07:17:40.175Z,7.00
2018-10-12T07:18:40.163Z,7.00
2018-10-12T07:20:33.144Z,7.10
2018-10-12T07:21:33.039Z,7.20
2018-10-12T07:23:26.414Z,6.10
2018-10-12T07:24:26.398Z,6.40
2018-10-12T07:26:19.307Z,7.20
2018-10-12T07:27:19.856Z,7.20
2018-10-12T07:29:12.295Z,6.90
2018-10-12T07:30:12.141Z,6.90
2018-10-12T07:32:05.528Z,6.50
2018-10-12T07:33:05.512Z,6.30
2018-10-12T07:34:58.407Z,7.20
2018-10-12T07:35:58.407Z,7.00
2018-10-12T07:37:51.296Z,6.40
2018-10-12T07:38:51.264Z,6.80
2018-10-12T07:40:44.659Z,6.30
2018-10-12T07:41:44.639Z,7.20
2018-10-12T07:43:38.086Z,6.90
2018-10-12T07:44:38.004Z,6.90
2018-10-12T07:46:31.406Z,6.70
2018-10-12T07:47:31.437Z,6.90
2018-10-12T07:49:24.866Z,6.90
2018-10-12T07:50:24.754Z,6.30
2018-10-12T07:52:18.130Z,6.90
2018-10-12T07:53:18.205Z,6.70
2018-10-12T07:55:11.581Z,6.40
2018-10-12T07:56:11.484Z,6.60
2018-10-12T07:58:04.374Z,6.10
2018-10-12T07:59:04.368Z,5.90
2018-10-12T08:00:57.759Z,6.30
2018-10-12T08:01:57.745Z,6.20
2018-10-12T08:03:50.622Z,6.70
2018-10-12T08:04:50.593Z,6.60
2018-10-12T08:06:44.240Z,6.50
2018-10-12T08:07:43.992Z,6.30
2018-10-12T08:09:37.381Z,5.90
2018-10-12T08:10:37.350Z,6.10
2018-10-12T08:12:30.764Z,6.30
2018-10-12T08:13:30.748Z,6.40
2018-10-12T08:15:24.287Z,6.50
2018-10-12T08:16:24.124Z,6.80
2018-10-12T08:18:17.071Z,6.20
2018-10-12T08:19:16.984Z,6.10
2018-10-12T08:21:10.366Z,6.80
2018-10-12T08:22:10.353Z,6.50
2018-10-12T08:24:03.256Z,6.50
2018-10-12T08:25:03.263Z,6.70
2018-10-12T08:26:56.671Z,6.50
2018-10-12T08:27:56.588Z,6.50
2018-10-12T08:29:49.986Z,6.80
2018-10-12T08:30:49.981Z,6.40
2018-10-12T08:32:42.880Z,6.20
2018-10-12T08:33:42.848Z,6.10
2018-10-12T08:35:36.364Z,6.40
2018-10-12T08:36:36.244Z,6.70
2018-10-12T08:38:29.226Z,6.30
2018-10-12T08:39:29.126Z,6.10
2018-10-12T08:41:22.027Z,6.70
2018-10-12T08:42:21.996Z,6.50
2018-10-12T08:44:14.888Z,6.70
2018-10-12T08:45:14.881Z,6.50
2018-10-12T08:47:08.404Z,6.80
2018-10-12T08:48:08.265Z,6.80
2018-10-12T08:50:01.193Z,6.40
2018-10-12T08:51:01.164Z,6.40
2018-10-12T08:52:54.076Z,6.60
2018-10-12T08:53:54.169Z,6.90
2018-10-12T08:55:47.463Z,6.30
2018-10-12T08:56:47.435Z,6.60
2018-10-12T08:58:40.383Z,6.10
2018-10-12T08:59:40.330Z,6.50
2018-10-12T09:01:33.705Z,6.20
2018-10-12T09:02:33.711Z,6.20
2018-10-12T09:04:27.092Z,6.00
2018-10-12T09:05:27.126Z,6.00
2018-10-12T09:07:20.468Z,6.00
2018-10-12T09:08:20.442Z,6.30
2018-10-12T09:10:13.834Z,5.90
2018-10-12T09:11:13.810Z,5.90
2018-10-12T09:13:07.205Z,6.10
2018-10-12T09:14:07.182Z,6.00
2018-10-12T09:16:00.093Z,5.90
2018-10-12T09:17:00.090Z,6.70
2018-10-12T09:18:53.517Z,6.00
2018-10-12T09:19:53.464Z,6.70
2018-10-12T09:21:46.411Z,6.80
2018-10-12T09:22:46.349Z,6.10
2018-10-12T09:24:39.244Z,6.80
2018-10-12T09:25:39.227Z,6.90
2018-10-12T09:27:32.187Z,6.70
2018-10-12T09:28:32.126Z,6.20
2018-10-12T09:30:25.104Z,6.40
2018-10-12T09:31:25.004Z,6.20
2018-10-12T09:33:18.003Z,5.70
2018-10-12T09:34:17.900Z,6.00
2018-10-12T09:36:10.781Z,6.00
2018-10-12T09:37:10.769Z,5.90
2018-10-12T09:39:03.682Z,6.10
2018-10-12T09:40:03.660Z,6.00
2018-10-12T09:41:56.597Z,5.80
2018-10-12T09:42:56.542Z,5.80
2018-10-12T09:44:49.943Z,5.30
2018-10-12T09:45:49.916Z,5.20
2018-10-12T09:47:43.310Z,5.10
2018-10-12T09:48:43.297Z,4.90
2018-10-12T09:50:36.209Z,5.30
2018-10-12T09:51:36.195Z,4.90
2018-10-12T09:53:29.718Z,5.20
2018-10-12T09:54:30.119Z,5.10
2018-10-12T09:56:22.995Z,4.70
2018-10-12T09:57:22.944Z,4.30
2018-10-12T09:59:17.357Z,4.30
2018-10-12T10:00:15.840Z,4.20
2018-10-12T10:02:08.820Z,4.80
2018-10-12T10:03:08.746Z,4.40
2018-10-12T10:05:02.173Z,4.50
2018-10-12T10:06:02.113Z,4.40
2018-10-12T10:07:55.205Z,4.20
2018-10-12T10:08:55.047Z,4.00
2018-10-12T10:10:48.458Z,4.30
2018-10-12T10:11:47.882Z,4.20
2018-10-12T10:13:59.454Z,4.90
2018-10-12T10:14:59.680Z,4.10
2018-10-12T10:16:52.664Z,4.20
2018-10-12T10:17:52.616Z,4.00
2018-10-12T10:19:46.035Z,4.40
2018-10-12T10:20:46.008Z,4.00
2018-10-12T10:24:15.274Z,4.50
2018-10-12T10:25:11.049Z,3.80
2018-10-12T10:27:04.402Z,4.00
2018-10-12T10:28:04.371Z,4.40
2018-10-12T10:29:59.441Z,4.10
2018-10-12T10:30:57.620Z,4.50
2018-10-12T10:32:50.185Z,4.20
2018-10-12T10:33:50.157Z,4.10
2018-10-12T10:35:43.074Z,4.10
2018-10-12T10:36:43.046Z,4.30
2018-10-12T10:38:35.998Z,4.20
2018-10-12T10:39:36.067Z,4.10
2018-10-12T10:42:14.501Z,3.90
2018-10-12T10:43:14.426Z,3.80
2018-10-12T10:45:07.827Z,4.00
2018-10-12T10:46:07.826Z,4.20
2018-10-12T10:48:01.085Z,3.90
2018-10-12T10:49:01.067Z,3.50
2018-10-12T10:50:53.979Z,3.60
2018-10-12T10:51:53.953Z,3.70
2018-10-12T10:53:46.923Z,4.00
2018-10-12T10:54:46.857Z,3.50
2018-10-12T10:56:39.845Z,3.50
2018-10-12T10:57:39.841Z,4.40
2018-10-12T10:59:34.233Z,3.60
2018-10-12T11:00:34.219Z,3.60
2018-10-12T11:02:27.696Z,3.60
2018-10-12T11:03:27.663Z,3.70
2018-10-12T11:05:20.903Z,3.90
2018-10-12T11:06:20.627Z,4.00
2018-10-12T11:08:13.953Z,4.00
2018-10-12T11:09:13.944Z,4.00
2018-10-12T11:11:07.334Z,4.10
2018-10-12T11:12:07.356Z,3.90
2018-10-12T11:14:00.766Z,3.80
2018-10-12T11:15:00.707Z,3.60
2018-10-12T11:16:53.592Z,4.00
2018-10-12T11:17:53.571Z,3.90
2018-10-12T11:19:47.044Z,3.50
2018-10-12T11:20:46.892Z,4.00
2018-10-12T11:22:39.921Z,3.50
2018-10-12T11:23:39.914Z,3.70
2018-10-12T11:25:33.316Z,3.70
2018-10-12T11:26:33.342Z,4.10
2018-10-12T11:28:26.685Z,3.90
2018-10-12T11:29:26.682Z,3.90
2018-10-12T11:31:20.081Z,3.80
2018-10-12T11:32:20.062Z,3.70
2018-10-12T11:34:13.103Z,3.80
2018-10-12T11:35:12.950Z,3.60
2018-10-12T11:37:05.907Z,4.10
2018-10-12T11:38:08.701Z,3.70
2018-10-12T11:40:00.515Z,4.10
2018-10-12T11:42:56.379Z,5.40
2018-10-12T11:43:54.921Z,5.30
2018-10-12T11:45:47.848Z,4.10
2018-10-12T11:46:47.846Z,4.00
2018-10-12T11:48:41.234Z,3.60
2018-10-12T11:49:42.257Z,3.40
2018-10-12T11:51:34.677Z,3.80
2018-10-12T11:52:34.615Z,3.60
2018-10-12T11:54:27.493Z,3.70
2018-10-12T11:55:27.473Z,3.50
2018-10-12T11:57:20.992Z,3.30
2018-10-12T11:58:20.379Z,3.90
2018-10-12T12:00:13.275Z,4.40
2018-10-12T12:01:13.304Z,4.20
2018-10-12T12:03:06.159Z,3.40
2018-10-12T12:04:06.133Z,3.80
2018-10-12T12:05:59.611Z,3.70
2018-10-12T12:06:59.042Z,3.70
2018-10-12T12:08:51.952Z,3.50
2018-10-12T12:09:51.937Z,3.30
2018-10-12T12:11:44.847Z,3.40
2018-10-12T12:12:44.809Z,3.50
2018-10-12T12:14:38.215Z,3.30
2018-10-12T12:15:38.211Z,4.30
2018-10-12T12:17:31.620Z,4.00
2018-10-12T12:18:31.590Z,4.00
2018-10-12T12:20:25.038Z,3.50
2018-10-12T12:21:24.983Z,4.20
2018-10-12T12:23:18.384Z,4.50
2018-10-12T12:24:18.363Z,3.90
2018-10-12T12:26:11.788Z,3.50
2018-10-12T12:27:11.741Z,3.80
2018-10-12T12:29:05.174Z,4.40
2018-10-12T12:30:05.125Z,3.70
2018-10-12T12:31:58.069Z,4.10
2018-10-12T12:32:58.024Z,3.70
2018-10-12T12:34:52.596Z,3.80
2018-10-12T12:35:51.828Z,3.70
2018-10-12T12:37:44.899Z,3.80
2018-10-12T12:38:44.327Z,4.10
2018-10-12T12:40:37.231Z,4.00
2018-10-12T12:41:37.241Z,4.20
2018-10-12T12:43:30.713Z,3.70
2018-10-12T12:44:30.668Z,4.10
2018-10-12T12:46:24.130Z,3.50
2018-10-12T12:47:24.358Z,3.60
2018-10-12T12:49:17.852Z,4.10
2018-10-12T12:50:17.446Z,3.20
2018-10-12T12:52:10.840Z,3.20
2018-10-12T12:53:10.836Z,3.00
2018-10-12T12:55:03.750Z,3.50
2018-10-12T12:56:03.725Z,3.00
2018-10-12T12:57:56.661Z,3.00
2018-10-12T12:58:56.609Z,3.20
2018-10-12T13:00:50.094Z,3.40
2018-10-12T13:01:50.002Z,3.40
2018-10-12T13:03:43.390Z,3.00
2018-10-12T13:04:43.370Z,3.20
2018-10-12T13:06:36.892Z,3.10
2018-10-12T13:07:36.752Z,2.70
2018-10-12T13:09:30.188Z,3.10
2018-10-12T13:10:30.158Z,3.30
2018-10-12T13:12:23.575Z,3.70
2018-10-12T13:13:23.561Z,3.40
2018-10-12T13:15:17.638Z,2.70
2018-10-12T13:16:17.624Z,2.60
2018-10-12T13:18:11.406Z,2.90
2018-10-12T13:19:10.501Z,2.80
2018-10-12T13:21:03.992Z,2.90
2018-10-12T13:22:03.820Z,3.10
2018-10-12T13:23:56.982Z,3.00
2018-10-12T13:24:57.003Z,2.60
2018-10-12T13:26:51.399Z,2.50
2018-10-12T13:27:51.043Z,2.50
2018-10-12T13:29:44.438Z,2.40
2018-10-12T13:30:44.535Z,2.80
2018-10-12T13:32:37.842Z,2.50
2018-10-12T13:33:37.806Z,2.50
2018-10-12T13:35:31.516Z,15.30
2018-10-12T13:36:30.719Z,5.40
2018-10-12T13:38:24.147Z,2.50
2018-10-12T13:39:24.097Z,2.40
2018-10-12T13:41:17.028Z,2.90
2018-10-12T13:42:17.026Z,2.60
2018-10-12T13:44:11.773Z,2.60
2018-10-12T13:45:10.491Z,2.70
2018-10-12T13:47:05.305Z,3.00
2018-10-12T13:48:03.899Z,2.70
2018-10-12T13:49:59.675Z,2.40
2018-10-12T13:50:58.820Z,2.70
2018-10-12T13:52:54.741Z,2.40
2018-10-12T13:53:52.757Z,2.40
2018-10-12T13:55:46.766Z,2.30
2018-10-12T13:56:46.816Z,2.30
2018-10-12T13:58:54.119Z,2.40
2018-10-12T13:59:52.471Z,2.50
2018-10-12T14:01:46.041Z,2.50
2018-10-12T14:02:45.223Z,2.30
2018-10-12T14:04:39.794Z,2.70
2018-10-12T14:05:39.337Z,2.70
2018-10-12T14:07:31.987Z,2.60
2018-10-12T14:08:31.968Z,2.60
2018-10-12T14:10:24.914Z,2.30
2018-10-12T14:11:24.872Z,2.90
2018-10-12T14:13:18.275Z,2.40
2018-10-12T14:14:18.262Z,2.20
2018-10-12T14:16:11.208Z,2.50
2018-10-12T14:17:11.152Z,2.40
2018-10-12T14:19:05.603Z,2.10
2018-10-12T14:20:05.041Z,2.40
2018-10-12T14:21:58.397Z,2.40
2018-10-12T14:22:58.362Z,2.70
2018-10-12T14:24:51.812Z,2.10
2018-10-12T14:25:51.752Z,2.50
2018-10-12T14:27:45.205Z,2.50
2018-10-12T14:28:45.151Z,2.70
2018-10-12T14:30:38.541Z,2.50
2018-10-12T14:31:38.574Z,2.60
2018-10-12T14:33:31.564Z,2.50
2018-10-12T14:34:31.556Z,2.70
2018-10-12T14:36:24.483Z,2.50
2018-10-12T14:37:24.404Z,2.30
2018-10-12T14:39:17.332Z,2.40
2018-10-12T14:40:17.306Z,2.10
2018-10-12T14:42:10.203Z,2.60
2018-10-12T14:43:10.204Z,2.60
2018-10-12T14:45:03.673Z,2.40
2018-10-12T14:46:03.562Z,2.60
2018-10-12T14:47:56.974Z,2.60
2018-10-12T14:48:56.963Z,2.60
2018-10-12T14:50:49.967Z,2.90
2018-10-12T14:51:49.905Z,3.00
2018-10-12T14:53:42.797Z,2.20
2018-10-12T14:54:42.781Z,2.60
2018-10-12T14:56:37.023Z,2.90
2018-10-12T14:57:36.999Z,2.50
2018-10-12T14:59:30.441Z,2.60
2018-10-12T15:00:30.411Z,2.80
2018-10-12T15:02:23.792Z,2.80
2018-10-12T15:03:23.769Z,2.70
2018-10-12T15:05:16.800Z,3.10
2018-10-12T15:06:16.680Z,3.30
2018-10-12T15:08:10.077Z,2.90
2018-10-12T15:09:10.061Z,2.70
2018-10-12T15:11:02.964Z,3.00
2018-10-12T15:12:02.959Z,3.00
2018-10-12T15:13:55.955Z,3.60
2018-10-12T15:14:55.836Z,3.30
2018-10-12T15:16:49.283Z,3.10
2018-10-12T15:17:49.258Z,2.90
2018-10-12T15:19:42.175Z,2.80
2018-10-12T15:20:42.190Z,2.60
2018-10-12T15:22:35.076Z,3.20
2018-10-12T15:23:35.059Z,3.10
2018-10-12T15:25:27.971Z,3.10
2018-10-12T15:26:27.957Z,3.00
2018-10-12T15:28:21.390Z,3.00
2018-10-12T15:29:21.341Z,2.80
2018-10-12T15:31:14.289Z,3.20
2018-10-12T15:32:14.356Z,3.60
2018-10-12T15:34:07.688Z,3.30
2018-10-12T15:35:07.629Z,3.30
2018-10-12T15:37:01.030Z,3.10
2018-10-12T15:38:01.031Z,3.30
2018-10-12T15:39:54.418Z,3.40
2018-10-12T15:40:54.427Z,3.20
2018-10-12T15:42:47.868Z,2.90
2018-10-12T15:43:48.379Z,3.00
2018-10-12T15:45:40.698Z,3.20
2018-10-12T15:46:40.681Z,3.30
2018-10-12T15:48:34.083Z,2.90
2018-10-12T15:49:34.058Z,2.90
2018-10-12T15:51:27.489Z,3.60
2018-10-12T15:52:27.464Z,3.70
2018-10-12T15:54:20.845Z,3.60
2018-10-12T15:55:20.824Z,3.20
2018-10-12T15:57:13.763Z,3.50
2018-10-12T15:58:13.751Z,3.20
2018-10-12T16:00:07.131Z,3.20
2018-10-12T16:01:07.112Z,3.40
2018-10-12T16:03:00.029Z,3.20
2018-10-12T16:04:00.007Z,3.10
2018-10-12T16:05:53.404Z,3.60
2018-10-12T16:06:53.391Z,3.20
2018-10-12T16:08:47.370Z,3.20
2018-10-12T16:09:47.351Z,3.50
2018-10-12T16:11:40.246Z,3.40
2018-10-12T16:12:40.232Z,3.20
2018-10-12T16:14:33.694Z,3.30
2018-10-12T16:15:33.628Z,3.10
2018-10-12T16:17:26.520Z,3.50
2018-10-12T16:18:26.506Z,3.50
2018-10-12T16:20:19.920Z,3.40
2018-10-12T16:21:19.888Z,3.20
2018-10-12T16:23:13.287Z,3.60
2018-10-12T16:24:13.267Z,3.20
2018-10-12T16:26:06.678Z,3.40
2018-10-12T16:27:06.667Z,3.30
2018-10-12T16:29:00.085Z,3.20
2018-10-12T16:30:00.031Z,3.50
2018-10-12T16:31:52.942Z,3.30
2018-10-12T16:32:52.920Z,3.20
2018-10-12T16:34:45.856Z,3.20
2018-10-12T16:35:45.841Z,3.40
2018-10-12T16:37:39.221Z,3.20
2018-10-12T16:38:39.208Z,3.00
2018-10-12T16:40:32.592Z,3.30
2018-10-12T16:41:33.643Z,3.60
2018-10-12T16:43:26.123Z,3.50
2018-10-12T16:44:25.983Z,3.10
2018-10-12T16:46:19.464Z,3.50
2018-10-12T16:47:19.348Z,3.30
2018-10-12T16:49:12.774Z,3.90
2018-10-12T16:50:12.742Z,4.50
2018-10-12T16:52:06.199Z,3.50
2018-10-12T16:53:06.124Z,3.50
2018-10-12T16:54:59.533Z,3.20
2018-10-12T16:55:59.489Z,3.60
2018-10-12T16:57:52.466Z,3.20
2018-10-12T16:58:52.392Z,3.30
2018-10-12T17:00:45.813Z,3.80
2018-10-12T17:01:45.758Z,3.70
2018-10-12T17:03:39.301Z,3.80
2018-10-12T17:04:39.257Z,3.90
2018-10-12T17:06:32.645Z,3.60
2018-10-12T17:07:32.650Z,3.40
2018-10-12T17:09:26.030Z,3.40
2018-10-12T17:10:26.003Z,3.80
2018-10-12T17:12:18.912Z,3.60
2018-10-12T17:13:18.892Z,3.60
2018-10-12T17:15:12.297Z,3.60
2018-10-12T17:16:12.275Z,3.50
2018-10-12T17:18:05.211Z,3.60
2018-10-12T17:19:05.178Z,4.00
2018-10-12T17:20:58.566Z,3.50
2018-10-12T17:21:58.541Z,3.40
2018-10-12T17:23:51.500Z,3.70
2018-10-12T17:24:51.456Z,3.60
2018-10-12T17:26:44.367Z,3.90
2018-10-12T17:27:44.388Z,3.90
2018-10-12T17:29:37.851Z,3.80
2018-10-12T17:30:37.747Z,3.50
2018-10-12T17:32:30.676Z,3.50
2018-10-12T17:33:31.170Z,3.70
2018-10-12T17:35:24.009Z,3.60
2018-10-12T17:36:23.979Z,3.60
2018-10-12T17:38:17.444Z,3.60
2018-10-12T17:39:16.865Z,3.60
2018-10-12T17:41:10.288Z,3.60
2018-10-12T17:42:10.259Z,4.00
2018-10-12T17:44:03.221Z,3.90
2018-10-12T17:45:03.182Z,4.20
2018-10-12T17:46:56.195Z,3.70
2018-10-12T17:47:56.159Z,3.30
2018-10-12T17:49:49.732Z,4.30
2018-10-12T17:50:49.546Z,5.60
2018-10-12T17:52:42.430Z,3.80
2018-10-12T17:53:42.433Z,3.80
2018-10-12T17:55:35.431Z,3.60
2018-10-12T17:56:35.317Z,3.50
2018-10-12T17:58:28.331Z,3.50
2018-10-12T17:59:28.410Z,3.80
2018-10-12T18:01:21.933Z,3.30
2018-10-12T18:02:21.683Z,3.60
2018-10-12T18:04:15.166Z,3.80
2018-10-12T18:05:15.131Z,4.10
2018-10-12T18:07:08.103Z,3.60
2018-10-12T18:08:08.059Z,3.40
2018-10-12T18:10:01.666Z,3.60
2018-10-12T18:11:01.635Z,3.50
2018-10-12T18:12:55.116Z,3.80
2018-10-12T18:13:54.869Z,3.80
2018-10-12T18:15:48.242Z,3.70
2018-10-12T18:16:48.252Z,3.50
2018-10-12T18:18:41.185Z,3.40
2018-10-12T18:19:41.156Z,3.60
2018-10-12T18:21:34.667Z,3.40
2018-10-12T18:22:34.481Z,3.60
2018-10-12T18:24:27.477Z,4.10
2018-10-12T18:25:27.372Z,3.70
2018-10-12T18:27:20.300Z,3.50
2018-10-12T18:28:20.239Z,3.60
2018-10-12T18:30:13.909Z,3.60
2018-10-12T18:31:13.669Z,3.70
2018-10-12T18:33:07.080Z,3.70
2018-10-12T18:34:07.048Z,3.80
2018-10-12T18:36:00.107Z,3.50
2018-10-12T18:37:00.101Z,3.50
2018-10-12T18:38:53.349Z,3.90
2018-10-12T18:39:53.323Z,3.80
2018-10-12T18:41:46.206Z,4.00
2018-10-12T18:42:46.182Z,4.00
2018-10-12T18:44:39.744Z,4.00
2018-10-12T18:45:39.637Z,6.40
2018-10-12T18:47:33.072Z,9.20
2018-10-12T18:48:32.930Z,6.20
2018-10-12T18:50:25.860Z,5.10
2018-10-12T18:51:25.817Z,4.50
2018-10-12T18:54:51.414Z,4.30
2018-10-12T18:55:51.533Z,4.50
2018-10-12T18:57:44.574Z,3.70
2018-10-12T18:58:44.519Z,3.50
2018-10-12T19:00:37.922Z,3.70
2018-10-12T19:01:37.900Z,3.70
2018-10-12T19:03:31.293Z,4.00
2018-10-12T19:04:31.328Z,3.80
2018-10-12T19:06:24.184Z,3.90
2018-10-12T19:07:24.356Z,4.00
2018-10-12T19:09:17.540Z,3.70
2018-10-12T19:10:18.087Z,3.80
2018-10-12T19:12:11.459Z,4.10
2018-10-12T19:13:10.893Z,3.30